Wetterdaten: Woche 15.02.10 - 21.02.10 (KW7)
Datum Zeit Temp. A. Feuchte A. Luftdruck Regen Wind Richtung Taupunkt Windchill Windben
15.02.2010 00:00 -2,3 C 74 % 1011,8 hPa 0,0 l/m 5,3 km/h NW -6,3 C -2,3 C 12,1 km/h
15.02.2010 01:00 -2,3 C 74 % 1011,6 hPa 0,0 l/m 5,5 km/h NW -6,3 C -2,3 C 15,3 km/h
15.02.2010 02:00 -2,5 C 75 % 1011,4 hPa 0,0 l/m 5,3 km/h NW -6,3 C -2,5 C 14,1 km/h
15.02.2010 03:00 -2,7 C 78 % 1011,3 hPa 0,0 l/m 5,5 km/h NW -6,0 C -2,7 C 14,9 km/h
15.02.2010 04:00 -2,9 C 80 % 1011,1 hPa 0,0 l/m 5,8 km/h W-SW -5,9 C -2,9 C 14,9 km/h
15.02.2010 05:00 -3,1 C 81 % 1010,9 hPa 0,0 l/m 5,9 km/h NW -5,9 C -3,5 C 16,1 km/h
15.02.2010 06:00 -3,1 C 83 % 1010,9 hPa 0,0 l/m 6,8 km/h NW -5,6 C -3,8 C 16,1 km/h
15.02.2010 07:00 -3,1 C 83 % 1011,0 hPa 0,0 l/m 5,2 km/h NW -5,6 C -3,1 C 15,3 km/h
15.02.2010 08:00 -3,0 C 83 % 1011,1 hPa 0,0 l/m 5,8 km/h NW -5,5 C -3,0 C 15,7 km/h
15.02.2010 09:00 -2,8 C 83 % 1011,2 hPa 0,0 l/m 5,4 km/h NW -5,3 C -2,8 C 12,1 km/h
15.02.2010 10:00 -2,5 C 83 % 1011,4 hPa 0,0 l/m 4,9 km/h NW -5,1 C -2,5 C 11,7 km/h
15.02.2010 11:00 -2,0 C 80 % 1011,3 hPa 0,0 l/m 6,4 km/h NW -5,1 C -2,4 C 14,9 km/h
15.02.2010 12:00 -1,5 C 78 % 1010,9 hPa 0,0 l/m 5,2 km/h NW -4,8 C -1,5 C 12,1 km/h
15.02.2010 13:00 -1,0 C 77 % 1010,4 hPa 0,0 l/m 6,0 km/h NW -4,6 C -1,2 C 12,5 km/h
15.02.2010 14:00 -0,6 C 75 % 1010,0 hPa 0,0 l/m 3,5 km/h NW -4,5 C -0,6 C 7,6 km/h
15.02.2010 15:00 -0,6 C 75 % 1009,8 hPa 0,0 l/m 2,1 km/h NW -4,4 C -0,6 C 5,6 km/h
15.02.2010 16:00 -0,5 C 75 % 1009,3 hPa 0,3 l/m 0,4 km/h N -4,4 C -0,5 C 3,2 km/h
15.02.2010 17:00 -1,3 C 74 % 1009,2 hPa 0,0 l/m 0,0 km/h N -5,3 C -1,3 C 0,8 km/h
15.02.2010 18:00 -3,1 C 76 % 1009,7 hPa 0,0 l/m 0,0 km/h N -6,8 C -3,1 C 0,0 km/h
15.02.2010 19:00 -4,0 C 81 % 1009,6 hPa 0,0 l/m 0,0 km/h N -6,9 C -4,0 C 0,8 km/h
15.02.2010 20:00 -3,7 C 83 % 1009,4 hPa 0,0 l/m 0,0 km/h N -6,1 C -3,7 C 0,0 km/h
15.02.2010 21:00 -3,3 C 85 % 1009,3 hPa 0,0 l/m 0,0 km/h N -5,5 C -3,3 C 0,0 km/h
15.02.2010 22:00 -2,9 C 85 % 1009,2 hPa 0,0 l/m 0,0 km/h N -5,1 C -2,9 C 0,0 km/h
15.02.2010 23:00 -2,9 C 84 % 1009,0 hPa 0,0 l/m 0,0 km/h N -5,2 C -2,9 C 0,0 km/h
16.02.2010 00:00 -2,9 C 85 % 1009,1 hPa 0,0 l/m 0,0 km/h N -5,0 C -2,9 C 0,0 km/h
16.02.2010 01:00 -2,7 C 85 % 1008,8 hPa 0,0 l/m 0,0 km/h N -4,9 C -2,7 C 0,0 km/h
16.02.2010 02:00 -2,7 C 85 % 1008,6 hPa 0,0 l/m 0,4 km/h W-SW -4,9 C -2,7 C 2,8 km/h
16.02.2010 03:00 -2,7 C 84 % 1008,3 hPa 0,0 l/m 0,7 km/h W-SW -5,1 C -2,7 C 4,0 km/h
16.02.2010 04:00 -2,8 C 83 % 1008,3 hPa 0,0 l/m 0,6 km/h N -5,3 C -2,8 C 4,0 km/h
16.02.2010 05:00 -2,8 C 82 % 1008,4 hPa 0,0 l/m 0,6 km/h SW -5,4 C -2,8 C 3,2 km/h
16.02.2010 06:00 -2,8 C 82 % 1008,5 hPa 0,0 l/m 0,7 km/h SW -5,4 C -2,8 C 4,8 km/h
16.02.2010 07:00 -2,8 C 82 % 1008,8 hPa 0,0 l/m 2,0 km/h W-SW -5,4 C -2,8 C 6,8 km/h
16.02.2010 08:00 -2,7 C 82 % 1009,1 hPa 0,0 l/m 0,5 km/h SO -5,3 C -2,7 C 4,8 km/h
16.02.2010 09:00 -2,8 C 83 % 1009,0 hPa 0,0 l/m 1,6 km/h O-SO -5,2 C -2,8 C 4,8 km/h
16.02.2010 10:00 -2,4 C 83 % 1009,2 hPa 0,0 l/m 1,6 km/h O-SO -4,9 C -2,4 C 4,8 km/h
16.02.2010 11:00 -1,9 C 80 % 1009,3 hPa 0,0 l/m 1,6 km/h O-NO -5,0 C -1,9 C 6,4 km/h
16.02.2010 12:00 -1,7 C 79 % 1008,9 hPa 0,0 l/m 3,2 km/h O -4,8 C -1,7 C 7,2 km/h
16.02.2010 13:00 -1,4 C 78 % 1008,7 hPa 0,0 l/m 2,0 km/h S-SO -4,7 C -1,4 C 6,8 km/h
16.02.2010 14:00 -1,3 C 78 % 1008,4 hPa 0,0 l/m 2,9 km/h O-SO -4,6 C -1,3 C 9,3 km/h
16.02.2010 15:00 -1,7 C 81 % 1008,1 hPa 0,0 l/m 5,3 km/h O-SO -4,5 C -1,7 C 11,3 km/h
16.02.2010 16:00 -2,1 C 83 % 1008,1 hPa 0,0 l/m 5,5 km/h O -4,7 C -2,1 C 10,5 km/h
16.02.2010 17:00 -2,5 C 85 % 1008,2 hPa 0,0 l/m 5,2 km/h O -4,8 C -2,5 C 10,9 km/h
16.02.2010 18:00 -2,7 C 86 % 1008,5 hPa 0,0 l/m 4,2 km/h O -4,7 C -2,7 C 10,9 km/h
16.02.2010 19:00 -2,4 C 86 % 1008,3 hPa 0,0 l/m 2,5 km/h O -4,4 C -2,4 C 6,4 km/h
16.02.2010 20:00 -2,3 C 86 % 1008,1 hPa 0,0 l/m 0,9 km/h O-SO -4,3 C -2,3 C 4,8 km/h
16.02.2010 21:00 -2,5 C 86 % 1007,8 hPa 0,0 l/m 0,6 km/h N -4,5 C -2,5 C 3,6 km/h
16.02.2010 22:00 -2,6 C 86 % 1007,3 hPa 0,0 l/m 1,5 km/h O -4,6 C -2,6 C 4,8 km/h
16.02.2010 23:00 -2,6 C 87 % 1006,8 hPa 0,0 l/m 0,5 km/h N -4,4 C -2,6 C 3,6 km/h
17.02.2010 00:00 -2,2 C 87 % 1006,1 hPa 0,0 l/m 0,2 km/h N -4,1 C -2,2 C 2,4 km/h
17.02.2010 01:00 -1,6 C 87 % 1005,1 hPa 0,0 l/m 0,8 km/h S-SO -3,5 C -1,6 C 5,2 km/h
17.02.2010 02:00 -1,3 C 87 % 1004,6 hPa 0,0 l/m 1,3 km/h O-SO -3,2 C -1,3 C 5,6 km/h
17.02.2010 03:00 -1,0 C 87 % 1004,0 hPa 0,0 l/m 1,7 km/h S-SO -2,9 C -1,0 C 7,6 km/h
17.02.2010 04:00 -0,9 C 86 % 1003,4 hPa 0,0 l/m 0,8 km/h O-SO -2,9 C -0,9 C 5,6 km/h
17.02.2010 05:00 -0,9 C 86 % 1003,2 hPa 0,0 l/m 1,7 km/h O-SO -2,9 C -0,9 C 6,8 km/h
17.02.2010 06:00 -0,9 C 86 % 1002,9 hPa 0,0 l/m 2,1 km/h O -2,9 C -0,9 C 6,4 km/h
17.02.2010 07:00 -0,7 C 87 % 1002,9 hPa 0,0 l/m 2,2 km/h O -2,6 C -0,7 C 5,2 km/h
17.02.2010 08:00 -0,1 C 87 % 1002,5 hPa 0,0 l/m 0,8 km/h O -2,0 C -0,1 C 8,0 km/h
17.02.2010 09:00 0,8 C 86 % 1002,1 hPa 0,0 l/m 2,4 km/h O -1,3 C 0,8 C 8,9 km/h
17.02.2010 10:00 1,3 C 85 % 1001,8 hPa 0,0 l/m 3,2 km/h O-SO -1,1 C 1,3 C 12,1 km/h
17.02.2010 11:00 1,4 C 85 % 1001,4 hPa 0,3 l/m 5,6 km/h O-SO -0,9 C 1,4 C 18,5 km/h
17.02.2010 12:00 2,3 C 82 % 1000,5 hPa 0,0 l/m 6,7 km/h O -0,5 C 1,9 C 17,7 km/h
17.02.2010 13:00 3,1 C 81 % 999,8 hPa 0,0 l/m 6,8 km/h NO 0,0 C 2,2 C 18,5 km/h
17.02.2010 14:00 3,6 C 78 % 999,3 hPa 0,0 l/m 5,8 km/h O-NO 0,1 C 3,4 C 14,9 km/h
17.02.2010 15:00 3,7 C 78 % 999,1 hPa 0,3 l/m 5,6 km/h O-SO 0,3 C 3,7 C 16,5 km/h
17.02.2010 16:00 3,5 C 79 % 998,8 hPa 0,0 l/m 4,2 km/h SO 0,2 C 3,5 C 13,7 km/h
17.02.2010 17:00 2,8 C 81 % 999,0 hPa 0,0 l/m 2,4 km/h O-SO -0,2 C 2,8 C 8,5 km/h
17.02.2010 18:00 2,3 C 82 % 999,3 hPa 0,0 l/m 3,1 km/h SO -0,4 C 2,3 C 8,5 km/h
17.02.2010 19:00 2,2 C 82 % 999,4 hPa 0,0 l/m 2,9 km/h SO -0,6 C 2,2 C 9,6 km/h
17.02.2010 20:00 1,8 C 83 % 999,6 hPa 0,0 l/m 1,5 km/h NO -0,8 C 1,8 C 7,2 km/h
17.02.2010 21:00 1,6 C 84 % 999,7 hPa 0,0 l/m 1,3 km/h O -0,9 C 1,6 C 6,8 km/h
17.02.2010 22:00 1,3 C 84 % 999,5 hPa 0,0 l/m 0,8 km/h SO -1,0 C 1,3 C 5,6 km/h
17.02.2010 23:00 1,4 C 85 % 999,4 hPa 0,0 l/m 2,2 km/h O -0,9 C 1,4 C 7,6 km/h
18.02.2010 00:00 1,3 C 86 % 999,4 hPa 0,0 l/m 1,5 km/h SO -0,8 C 1,3 C 6,4 km/h
18.02.2010 01:00 1,1 C 87 % 999,1 hPa 0,0 l/m 1,8 km/h SO -0,8 C 1,1 C 6,8 km/h
18.02.2010 02:00 0,9 C 88 % 999,0 hPa 0,0 l/m 1,1 km/h S-SO -0,9 C 0,9 C 8,0 km/h
18.02.2010 03:00 0,8 C 88 % 999,0 hPa 0,0 l/m 1,2 km/h O-SO -1,0 C 0,8 C 6,0 km/h
18.02.2010 04:00 0,7 C 89 % 998,9 hPa 0,0 l/m 1,0 km/h O-SO -0,9 C 0,7 C 6,0 km/h
18.02.2010 05:00 0,6 C 89 % 998,9 hPa 0,0 l/m 0,4 km/h N -1,0 C 0,6 C 4,0 km/h
18.02.2010 06:00 0,6 C 90 % 999,0 hPa 0,0 l/m 0,7 km/h O-SO -0,8 C 0,6 C 5,6 km/h
18.02.2010 07:00 0,7 C 90 % 999,3 hPa 0,0 l/m 0,3 km/h N -0,7 C 0,7 C 2,8 km/h
18.02.2010 08:00 0,7 C 90 % 999,8 hPa 0,0 l/m 0,4 km/h N -0,7 C 0,7 C 3,2 km/h
18.02.2010 09:00 0,8 C 90 % 1000,2 hPa 0,0 l/m 0,2 km/h N -0,6 C 0,8 C 2,0 km/h
18.02.2010 10:00 0,9 C 90 % 1000,8 hPa 0,0 l/m 0,4 km/h N -0,5 C 0,9 C 2,4 km/h
18.02.2010 11:00 1,0 C 91 % 1001,4 hPa 0,0 l/m 0,2 km/h N -0,3 C 1,0 C 2,4 km/h
18.02.2010 12:00 1,4 C 91 % 1001,7 hPa 0,0 l/m 1,3 km/h N-NW -0,0 C 1,4 C 6,0 km/h
18.02.2010 13:00 2,1 C 88 % 1001,8 hPa 0,0 l/m 4,1 km/h NW 0,3 C 2,1 C 9,3 km/h
18.02.2010 14:00 2,5 C 85 % 1001,8 hPa 0,0 l/m 3,3 km/h N-NO 0,1 C 2,5 C 8,9 km/h
18.02.2010 15:00 2,5 C 85 % 1002,1 hPa 0,0 l/m 1,9 km/h NO 0,2 C 2,5 C 6,0 km/h
18.02.2010 16:00 3,0 C 83 % 1002,6 hPa 0,0 l/m 0,6 km/h N 0,4 C 3,0 C 3,6 km/h
18.02.2010 17:00 2,8 C 83 % 1003,0 hPa 0,0 l/m 0,4 km/h N 0,1 C 2,8 C 4,4 km/h
18.02.2010 18:00 2,2 C 84 % 1003,8 hPa 0,0 l/m 0,1 km/h N -0,2 C 2,2 C 2,0 km/h
18.02.2010 19:00 1,7 C 86 % 1004,0 hPa 0,0 l/m 0,1 km/h N -0,4 C 1,7 C 1,6 km/h
18.02.2010 20:00 1,0 C 86 % 1004,2 hPa 0,0 l/m 0,0 km/h N -1,1 C 1,0 C 0,0 km/h
18.02.2010 21:00 -0,2 C 86 % 1005,3 hPa 0,0 l/m 0,0 km/h N -2,2 C -0,2 C 1,6 km/h
18.02.2010 22:00 -1,0 C 87 % 1005,7 hPa 0,0 l/m 0,0 km/h N -2,9 C -1,0 C 0,4 km/h
18.02.2010 23:00 -1,7 C 88 % 1005,7 hPa 0,0 l/m 0,0 km/h N -3,5 C -1,7 C 0,4 km/h
19.02.2010 00:00 -2,0 C 89 % 1005,4 hPa 0,0 l/m 0,0 km/h N -3,6 C -2,0 C 0,0 km/h
19.02.2010 01:00 -1,6 C 89 % 1005,2 hPa 0,0 l/m 0,0 km/h N -3,2 C -1,6 C 0,4 km/h
19.02.2010 02:00 -1,1 C 90 % 1005,2 hPa 0,0 l/m 0,1 km/h O-SO -2,6 C -1,1 C 1,6 km/h
19.02.2010 03:00 -0,7 C 91 % 1005,2 hPa 0,0 l/m 1,2 km/h O-SO -2,0 C -0,7 C 5,2 km/h
19.02.2010 04:00 -0,7 C 91 % 1004,0 hPa 0,0 l/m 1,0 km/h O-SO -2,0 C -0,7 C 3,2 km/h
19.02.2010 05:00 -0,3 C 92 % 1003,3 hPa 0,0 l/m 1,1 km/h O-SO -1,5 C -0,3 C 4,4 km/h
19.02.2010 06:00 -0,1 C 92 % 1002,4 hPa 0,0 l/m 1,3 km/h SO -1,2 C -0,1 C 6,4 km/h
19.02.2010 07:00 0,4 C 92 % 1001,8 hPa 0,0 l/m 3,3 km/h S-SO -0,8 C 0,4 C 12,9 km/h
19.02.2010 08:00 0,4 C 92 % 1000,6 hPa 0,0 l/m 2,8 km/h O -0,8 C 0,4 C 9,6 km/h
19.02.2010 09:00 0,3 C 92 % 999,2 hPa 0,0 l/m 2,5 km/h O-SO -0,9 C 0,3 C 8,1 km/h
19.02.2010 10:00 0,3 C 92 % 998,4 hPa 0,0 l/m 0,9 km/h O-SO -0,8 C 0,3 C 5,2 km/h
19.02.2010 11:00 0,6 C 93 % 997,7 hPa 0,0 l/m 2,2 km/h O -0,4 C 0,6 C 6,8 km/h
19.02.2010 12:00 1,1 C 93 % 997,1 hPa 0,0 l/m 2,1 km/h O 0,1 C 1,1 C 6,8 km/h
19.02.2010 13:00 2,0 C 93 % 995,7 hPa 0,0 l/m 1,4 km/h N-NO 1,0 C 2,0 C 4,8 km/h
19.02.2010 14:00 2,2 C 93 % 995,1 hPa 0,0 l/m 1,4 km/h N-NO 1,1 C 2,2 C 6,0 km/h
19.02.2010 15:00 3,4 C 93 % 994,5 hPa 0,0 l/m 0,9 km/h S-SO 2,4 C 3,4 C 5,6 km/h
19.02.2010 16:00 4,8 C 93 % 993,2 hPa 0,0 l/m 4,7 km/h S-SO 3,7 C 4,8 C 11,7 km/h
19.02.2010 17:00 4,8 C 92 % 992,6 hPa 0,3 l/m 2,3 km/h SO 3,7 C 4,8 C 9,3 km/h
19.02.2010 18:00 3,9 C 91 % 992,3 hPa 0,0 l/m 1,4 km/h O-NO 2,6 C 3,9 C 6,0 km/h
19.02.2010 19:00 3,1 C 91 % 992,1 hPa 0,0 l/m 0,3 km/h N 1,8 C 3,1 C 2,4 km/h
19.02.2010 20:00 3,0 C 92 % 991,0 hPa 0,0 l/m 0,6 km/h S-SW 1,8 C 3,0 C 3,6 km/h
19.02.2010 21:00 3,6 C 92 % 989,9 hPa 0,5 l/m 3,1 km/h S 2,4 C 3,6 C 12,1 km/h
19.02.2010 22:00 3,8 C 92 % 990,2 hPa 0,0 l/m 1,8 km/h SW 2,6 C 3,8 C 7,2 km/h
19.02.2010 23:00 3,9 C 92 % 990,8 hPa 0,3 l/m 3,9 km/h W 2,7 C 3,9 C 13,3 km/h
20.02.2010 00:00 4,1 C 89 % 991,1 hPa 0,8 l/m 10,8 km/h W 2,4 C 0,6 C 29,0 km/h
20.02.2010 01:00 4,0 C 84 % 991,5 hPa 1,8 l/m 16,5 km/h SW 1,6 C -2,8 C 39,0 km/h
20.02.2010 02:00 3,8 C 83 % 992,4 hPa 0,8 l/m 19,9 km/h W-NW 1,2 C -4,6 C 45,5 km/h
20.02.2010 03:00 4,1 C 81 % 993,0 hPa 0,3 l/m 16,3 km/h W 1,1 C -2,7 C 37,4 km/h
20.02.2010 04:00 4,3 C 78 % 993,6 hPa 0,0 l/m 16,4 km/h W-SW 0,9 C -2,4 C 38,2 km/h
20.02.2010 05:00 4,0 C 80 % 994,8 hPa 0,0 l/m 14,5 km/h NW 0,7 C -1,9 C 33,8 km/h
20.02.2010 06:00 3,1 C 83 % 995,7 hPa 0,5 l/m 11,7 km/h W-SW 0,5 C -1,1 C 30,6 km/h
20.02.2010 07:00 2,9 C 83 % 996,5 hPa 0,0 l/m 10,2 km/h W-NW 0,4 C -0,3 C 28,6 km/h
20.02.2010 08:00 2,8 C 83 % 997,2 hPa 0,3 l/m 11,3 km/h W-NW 0,2 C -1,2 C 26,5 km/h
20.02.2010 09:00 2,8 C 83 % 997,6 hPa 0,3 l/m 12,1 km/h NW 0,1 C -1,9 C 29,0 km/h
20.02.2010 10:00 2,3 C 85 % 998,6 hPa 0,5 l/m 12,1 km/h NW 0,0 C -2,3 C 29,8 km/h
20.02.2010 11:00 2,5 C 85 % 998,8 hPa 0,3 l/m 11,3 km/h NW 0,2 C -1,6 C 28,2 km/h
20.02.2010 12:00 2,9 C 81 % 998,7 hPa 0,0 l/m 10,5 km/h NW 0,0 C -0,5 C 29,8 km/h
20.02.2010 13:00 3,5 C 77 % 998,5 hPa 0,0 l/m 9,7 km/h NW -0,3 C 0,6 C 23,3 km/h
20.02.2010 14:00 3,6 C 75 % 998,5 hPa 0,0 l/m 8,9 km/h NW -0,5 C 1,4 C 25,8 km/h
20.02.2010 15:00 3,4 C 74 % 998,7 hPa 0,0 l/m 8,0 km/h NW -0,8 C 1,9 C 20,1 km/h
20.02.2010 16:00 3,4 C 72 % 999,1 hPa 0,0 l/m 8,9 km/h NW -1,3 C 1,2 C 23,3 km/h
20.02.2010 17:00 3,2 C 71 % 999,5 hPa 0,0 l/m 6,4 km/h NW -1,6 C 3,2 C 18,5 km/h
20.02.2010 18:00 3,0 C 70 % 999,9 hPa 0,0 l/m 6,4 km/h NW -2,0 C 3,0 C 18,5 km/h
20.02.2010 19:00 2,9 C 70 % 1000,1 hPa 0,0 l/m 7,2 km/h W-NW -2,0 C 2,2 C 21,7 km/h
20.02.2010 20:00 2,9 C 70 % 1000,4 hPa 0,0 l/m 8,9 km/h NW -2,1 C 0,7 C 23,3 km/h
20.02.2010 21:00 2,8 C 69 % 1001,1 hPa 0,0 l/m 6,4 km/h NW -2,4 C 2,8 C 20,1 km/h
20.02.2010 22:00 2,5 C 72 % 1001,4 hPa 0,0 l/m 5,6 km/h NW -2,2 C 2,5 C 16,9 km/h
20.02.2010 23:00 2,7 C 73 % 1001,3 hPa 0,0 l/m 7,2 km/h W-NW -1,8 C 1,9 C 22,5 km/h
21.02.2010 00:00 2,7 C 71 % 1001,7 hPa 0,0 l/m 8,0 km/h NW -2,0 C 1,2 C 21,7 km/h
21.02.2010 01:00 2,3 C 71 % 1002,0 hPa 0,0 l/m 4,8 km/h NW -2,5 C 2,3 C 18,5 km/h
21.02.2010 02:00 2,0 C 72 % 1002,5 hPa 0,0 l/m 4,0 km/h W-NW -2,6 C 2,0 C 14,5 km/h
21.02.2010 03:00 1,9 C 71 % 1002,8 hPa 0,0 l/m 5,6 km/h NW -2,7 C 2,0 C 14,5 km/h
21.02.2010 04:00 1,8 C 71 % 1003,6 hPa 0,0 l/m 4,8 km/h NW -2,9 C 1,8 C 19,3 km/h
21.02.2010 05:00 1,7 C 71 % 1004,0 hPa 0,0 l/m 4,0 km/h NW -3,0 C 1,7 C 16,1 km/h
21.02.2010 06:00 2,3 C 67 % 1004,5 hPa 0,0 l/m 8,9 km/h NW -3,2 C 0,1 C 26,5 km/h
21.02.2010 07:00 2,3 C 68 % 1005,0 hPa 0,0 l/m 8,0 km/h W -3,1 C 0,8 C 24,1 km/h
21.02.2010 08:00 2,7 C 67 % 1005,7 hPa 0,0 l/m 7,2 km/h W -2,9 C 2,0 C 24,1 km/h
21.02.2010 09:00 3,9 C 61 % 1005,9 hPa 0,0 l/m 4,8 km/h NW -2,9 C 3,9 C 19,3 km/h
21.02.2010 10:00 4,8 C 57 % 1006,3 hPa 0,0 l/m 7,2 km/h W -3,2 C 4,1 C 24,1 km/h
21.02.2010 11:00 5,5 C 54 % 1006,5 hPa 0,0 l/m 6,4 km/h W -3,2 C 5,5 C 22,5 km/h
21.02.2010 12:00 5,9 C 58 % 1006,3 hPa 0,0 l/m 7,2 km/h W-SW -1,8 C 5,3 C 25,0 km/h
21.02.2010 13:00 6,8 C 54 % 1005,7 hPa 0,0 l/m 6,4 km/h NW -1,9 C 6,8 C 17,7 km/h
21.02.2010 14:00 7,6 C 43 % 1005,4 hPa 0,0 l/m 8,9 km/h W -4,3 C 5,7 C 25,0 km/h
21.02.2010 15:00 7,6 C 43 % 1005,3 hPa 0,0 l/m 5,6 km/h NW -4,4 C 7,6 C 15,3 km/h
21.02.2010 16:00 7,1 C 46 % 1005,2 hPa 0,0 l/m 4,0 km/h SO -3,9 C 7,1 C 12,9 km/h
21.02.2010 17:00 5,7 C 54 % 1005,5 hPa 0,0 l/m 1,6 km/h O-SO -3,0 C 5,7 C 7,2 km/h
21.02.2010 18:00 2,5 C 67 % 1006,0 hPa 0,0 l/m 0,0 km/h N -3,0 C 2,5 C 2,4 km/h
21.02.2010 19:00 0,1 C 77 % 1006,2 hPa 0,0 l/m 0,0 km/h N -3,5 C 0,1 C 2,4 km/h
21.02.2010 20:00 -1,6 C 82 % 1006,0 hPa 0,0 l/m 0,0 km/h N -4,3 C -1,6 C 0,8 km/h
21.02.2010 21:00 -2,2 C 84 % 1006,0 hPa 0,0 l/m 0,0 km/h N -4,6 C -2,2 C 0,0 km/h
21.02.2010 22:00 -1,9 C 83 % 1005,8 hPa 0,0 l/m 0,0 km/h N -4,4 C -1,9 C 2,4 km/h
21.02.2010 23:00 -3,0 C 84 % 1005,7 hPa 0,0 l/m 0,0 km/h N -5,3 C -3,0 C 1,6 km/h
Min-Datum _ 15.02.10 21.02.10 19.02.10 - 15.02.10 - 15.02.10 20.02.10 15.02.10
_ Min-Zeit 19:15 14:30 21:45 - 17:00 - 18:45 02:15 17:15
Minimum _ -4,2 C 42 % 989,6 hPa - 0,0 km/h - -7,3 C -5,5 C 0,0 km/h
Max-Datum _ 21.02.10 19.02.10 15.02.10 20.02.10 20.02.10 - 19.02.10 21.02.10 20.02.10
_ Max-Zeit 15:00 10:45 00:00 01:30 02:15 - 16:15 15:00 02:15
Maximum _ 7,9 C 93 % 1011,8 hPa 1,8 l/m 22,1 km/h
W-NW
- 3,9 C 7,7 C 53,1 km/h
W
Durchschnitt _ 0,7 C 81 % 1003,1 hPa #7,3 l/m 3,7 km/h NW -2,3 C 0,1 C 11,0 km/h